<?xml version="1.0" encoding="utf-8"?>
<gpx xmlns:xsi="http://www.w3.org/2001/XMLSchema-instance" xmlns:xsd="http://www.w3.org/2001/XMLSchema" version="1.1" creator="Shapelink.com" xmlns="http://www.topografix.com/GPX/1/1" xmlns:gpxtpx="http://www.garmin.com/xmlschemas/TrackPointExtension/v1">
  <metadata>
    <name>Löpning 7.00 km, 2019-11-12</name>
    <desc></desc>
    <author><name>Bengt Norberg</name></author> 
    <time>2019-11-12T09:52:37Z</time>
  </metadata>
  <trk>
    <name>Löpning 7.00 km, 2019-11-12</name>
    <trkseg>
      <trkpt lat="59.81977460562" lon="16.985137312902">
        <ele>41.8</ele>
        <time>2019-11-12T09:52:37Z</time>
      </trkpt>
      <trkpt lat="59.819589281811" lon="16.98521710859">
        <ele>41.4</ele>
        <time>2019-11-12T09:52:44Z</time>
      </trkpt>
      <trkpt lat="59.819432456462" lon="16.985261113565">
        <ele>41.8</ele>
        <time>2019-11-12T09:52:51Z</time>
      </trkpt>
      <trkpt lat="59.819376046275" lon="16.985261281203">
        <ele>39.4</ele>
        <time>2019-11-12T09:53:03Z</time>
      </trkpt>
      <trkpt lat="59.819423655467" lon="16.985609213872">
        <ele>39</ele>
        <time>2019-11-12T09:53:11Z</time>
      </trkpt>
      <trkpt lat="59.819495739807" lon="16.985954380514">
        <ele>39.4</ele>
        <time>2019-11-12T09:53:19Z</time>
      </trkpt>
      <trkpt lat="59.819556927677" lon="16.986337433344">
        <ele>38</ele>
        <time>2019-11-12T09:53:27Z</time>
      </trkpt>
      <trkpt lat="59.819613589321" lon="16.986708583876">
        <ele>36</ele>
        <time>2019-11-12T09:53:35Z</time>
      </trkpt>
      <trkpt lat="59.819673687544" lon="16.987048637559">
        <ele>36.8</ele>
        <time>2019-11-12T09:53:42Z</time>
      </trkpt>
      <trkpt lat="59.81973688707" lon="16.987425068688">
        <ele>35.2</ele>
        <time>2019-11-12T09:53:50Z</time>
      </trkpt>
      <trkpt lat="59.819801846795" lon="16.987793034098">
        <ele>35.8</ele>
        <time>2019-11-12T09:53:58Z</time>
      </trkpt>
      <trkpt lat="59.819873009126" lon="16.988156221825">
        <ele>36.4</ele>
        <time>2019-11-12T09:54:06Z</time>
      </trkpt>
      <trkpt lat="59.819940818697" lon="16.98852209176">
        <ele>38</ele>
        <time>2019-11-12T09:54:14Z</time>
      </trkpt>
      <trkpt lat="59.820003515309" lon="16.988893912844">
        <ele>39</ele>
        <time>2019-11-12T09:54:22Z</time>
      </trkpt>
      <trkpt lat="59.820050705406" lon="16.989264560462">
        <ele>37</ele>
        <time>2019-11-12T09:54:30Z</time>
      </trkpt>
      <trkpt lat="59.820083562454" lon="16.989331615662">
        <ele>36.8</ele>
        <time>2019-11-12T09:54:32Z</time>
      </trkpt>
      <trkpt lat="59.820166291807" lon="16.989302698107">
        <ele>35</ele>
        <time>2019-11-12T09:54:36Z</time>
      </trkpt>
      <trkpt lat="59.820340300051" lon="16.989194655416">
        <ele>32.8</ele>
        <time>2019-11-12T09:54:44Z</time>
      </trkpt>
      <trkpt lat="59.8205222711" lon="16.98909625191">
        <ele>32</ele>
        <time>2019-11-12T09:54:52Z</time>
      </trkpt>
      <trkpt lat="59.820709271289" lon="16.989010924168">
        <ele>32.4</ele>
        <time>2019-11-12T09:55:00Z</time>
      </trkpt>
      <trkpt lat="59.820893673089" lon="16.988915538146">
        <ele>33.6</ele>
        <time>2019-11-12T09:55:08Z</time>
      </trkpt>
      <trkpt lat="59.821085199504" lon="16.988854769371">
        <ele>34.8</ele>
        <time>2019-11-12T09:55:16Z</time>
      </trkpt>
      <trkpt lat="59.821269433666" lon="16.98876684324">
        <ele>34.8</ele>
        <time>2019-11-12T09:55:24Z</time>
      </trkpt>
      <trkpt lat="59.821458194054" lon="16.988675312892">
        <ele>35.6</ele>
        <time>2019-11-12T09:55:32Z</time>
      </trkpt>
      <trkpt lat="59.82163874018" lon="16.988570790599">
        <ele>35</ele>
        <time>2019-11-12T09:55:40Z</time>
      </trkpt>
      <trkpt lat="59.821816352641" lon="16.988462077356">
        <ele>35.6</ele>
        <time>2019-11-12T09:55:48Z</time>
      </trkpt>
      <trkpt lat="59.821985667021" lon="16.988316819029">
        <ele>35.4</ele>
        <time>2019-11-12T09:55:56Z</time>
      </trkpt>
      <trkpt lat="59.822163782396" lon="16.988213889297">
        <ele>35</ele>
        <time>2019-11-12T09:56:04Z</time>
      </trkpt>
      <trkpt lat="59.822339550839" lon="16.988116072524">
        <ele>35</ele>
        <time>2019-11-12T09:56:12Z</time>
      </trkpt>
      <trkpt lat="59.822519174956" lon="16.987998055372">
        <ele>35.2</ele>
        <time>2019-11-12T09:56:20Z</time>
      </trkpt>
      <trkpt lat="59.822703912032" lon="16.987880960229">
        <ele>35.6</ele>
        <time>2019-11-12T09:56:28Z</time>
      </trkpt>
      <trkpt lat="59.822888732927" lon="16.987768726588">
        <ele>35.2</ele>
        <time>2019-11-12T09:56:36Z</time>
      </trkpt>
      <trkpt lat="59.823072380356" lon="16.98764953597">
        <ele>34.4</ele>
        <time>2019-11-12T09:56:44Z</time>
      </trkpt>
      <trkpt lat="59.823259464364" lon="16.987549875179">
        <ele>35.4</ele>
        <time>2019-11-12T09:56:52Z</time>
      </trkpt>
      <trkpt lat="59.823444788173" lon="16.987430181647">
        <ele>35.8</ele>
        <time>2019-11-12T09:57:00Z</time>
      </trkpt>
      <trkpt lat="59.823631536905" lon="16.987295652152">
        <ele>34.6</ele>
        <time>2019-11-12T09:57:08Z</time>
      </trkpt>
      <trkpt lat="59.823819542922" lon="16.98717512043">
        <ele>33.8</ele>
        <time>2019-11-12T09:57:16Z</time>
      </trkpt>
      <trkpt lat="59.82400746512" lon="16.987066742463">
        <ele>33.8</ele>
        <time>2019-11-12T09:57:24Z</time>
      </trkpt>
      <trkpt lat="59.824197482793" lon="16.9869680875">
        <ele>33.8</ele>
        <time>2019-11-12T09:57:32Z</time>
      </trkpt>
      <trkpt lat="59.824388506294" lon="16.986878652627">
        <ele>33.4</ele>
        <time>2019-11-12T09:57:40Z</time>
      </trkpt>
      <trkpt lat="59.824579026881" lon="16.986793660161">
        <ele>32.6</ele>
        <time>2019-11-12T09:57:48Z</time>
      </trkpt>
      <trkpt lat="59.824769296011" lon="16.986706153125">
        <ele>31.6</ele>
        <time>2019-11-12T09:57:56Z</time>
      </trkpt>
      <trkpt lat="59.824957804942" lon="16.986598361891">
        <ele>31.4</ele>
        <time>2019-11-12T09:58:04Z</time>
      </trkpt>
      <trkpt lat="59.825151091556" lon="16.98650205386">
        <ele>31.6</ele>
        <time>2019-11-12T09:58:12Z</time>
      </trkpt>
      <trkpt lat="59.825325267438" lon="16.986409601503">
        <ele>32.2</ele>
        <time>2019-11-12T09:58:19Z</time>
      </trkpt>
      <trkpt lat="59.825518805509" lon="16.986300469165">
        <ele>32.6</ele>
        <time>2019-11-12T09:58:27Z</time>
      </trkpt>
      <trkpt lat="59.825710751019" lon="16.986197623252">
        <ele>32.8</ele>
        <time>2019-11-12T09:58:35Z</time>
      </trkpt>
      <trkpt lat="59.825899762864" lon="16.986088407095">
        <ele>32.6</ele>
        <time>2019-11-12T09:58:43Z</time>
      </trkpt>
      <trkpt lat="59.826086595415" lon="16.985975167626">
        <ele>32.8</ele>
        <time>2019-11-12T09:58:51Z</time>
      </trkpt>
      <trkpt lat="59.826298741304" lon="16.985858491578">
        <ele>32.4</ele>
        <time>2019-11-12T09:59:00Z</time>
      </trkpt>
      <trkpt lat="59.826437042654" lon="16.985718262391">
        <ele>33</ele>
        <time>2019-11-12T09:59:07Z</time>
      </trkpt>
      <trkpt lat="59.826429750401" lon="16.985549786201">
        <ele>34</ele>
        <time>2019-11-12T09:59:11Z</time>
      </trkpt>
      <trkpt lat="59.826399156466" lon="16.985164889353">
        <ele>34.2</ele>
        <time>2019-11-12T09:59:19Z</time>
      </trkpt>
      <trkpt lat="59.826367472884" lon="16.984781668885">
        <ele>34.4</ele>
        <time>2019-11-12T09:59:27Z</time>
      </trkpt>
      <trkpt lat="59.82633344237" lon="16.984398532236">
        <ele>35.6</ele>
        <time>2019-11-12T09:59:35Z</time>
      </trkpt>
      <trkpt lat="59.826308548127" lon="16.984012461922">
        <ele>36.4</ele>
        <time>2019-11-12T09:59:43Z</time>
      </trkpt>
      <trkpt lat="59.82627644545" lon="16.983638377725">
        <ele>37.8</ele>
        <time>2019-11-12T09:59:51Z</time>
      </trkpt>
      <trkpt lat="59.826227998068" lon="16.983278961853">
        <ele>38.2</ele>
        <time>2019-11-12T09:59:59Z</time>
      </trkpt>
      <trkpt lat="59.826215592856" lon="16.982887443304">
        <ele>39.2</ele>
        <time>2019-11-12T10:00:07Z</time>
      </trkpt>
      <trkpt lat="59.826184160731" lon="16.982513275288">
        <ele>39.6</ele>
        <time>2019-11-12T10:00:15Z</time>
      </trkpt>
      <trkpt lat="59.826158679755" lon="16.982147405353">
        <ele>39.8</ele>
        <time>2019-11-12T10:00:23Z</time>
      </trkpt>
      <trkpt lat="59.826138898471" lon="16.981769297844">
        <ele>38</ele>
        <time>2019-11-12T10:00:31Z</time>
      </trkpt>
      <trkpt lat="59.826114423323" lon="16.981384820091">
        <ele>38.2</ele>
        <time>2019-11-12T10:00:39Z</time>
      </trkpt>
      <trkpt lat="59.826081063361" lon="16.981011238808">
        <ele>39.4</ele>
        <time>2019-11-12T10:00:47Z</time>
      </trkpt>
      <trkpt lat="59.82604175225" lon="16.980640926466">
        <ele>40</ele>
        <time>2019-11-12T10:00:55Z</time>
      </trkpt>
      <trkpt lat="59.826020210767" lon="16.980271703771">
        <ele>40</ele>
        <time>2019-11-12T10:01:03Z</time>
      </trkpt>
      <trkpt lat="59.825994562153" lon="16.979909186596">
        <ele>38.4</ele>
        <time>2019-11-12T10:01:11Z</time>
      </trkpt>
      <trkpt lat="59.825969164996" lon="16.979529654164">
        <ele>37.4</ele>
        <time>2019-11-12T10:01:19Z</time>
      </trkpt>
      <trkpt lat="59.825937649052" lon="16.979137800339">
        <ele>37.4</ele>
        <time>2019-11-12T10:01:28Z</time>
      </trkpt>
      <trkpt lat="59.825934547749" lon="16.979052304959">
        <ele>37.8</ele>
        <time>2019-11-12T10:01:30Z</time>
      </trkpt>
      <trkpt lat="59.825986264072" lon="16.978911991953">
        <ele>37.4</ele>
        <time>2019-11-12T10:01:34Z</time>
      </trkpt>
      <trkpt lat="59.826071340357" lon="16.978729266533">
        <ele>36.4</ele>
        <time>2019-11-12T10:01:41Z</time>
      </trkpt>
      <trkpt lat="59.826256412709" lon="16.978638239099">
        <ele>36.8</ele>
        <time>2019-11-12T10:01:49Z</time>
      </trkpt>
      <trkpt lat="59.826437797025" lon="16.978534387358">
        <ele>37.6</ele>
        <time>2019-11-12T10:01:57Z</time>
      </trkpt>
      <trkpt lat="59.826626389775" lon="16.978450735996">
        <ele>35.4</ele>
        <time>2019-11-12T10:02:05Z</time>
      </trkpt>
      <trkpt lat="59.826810456299" lon="16.978354763241">
        <ele>35.8</ele>
        <time>2019-11-12T10:02:13Z</time>
      </trkpt>
      <trkpt lat="59.826862926993" lon="16.978317212329">
        <ele>35.4</ele>
        <time>2019-11-12T10:02:16Z</time>
      </trkpt>
      <trkpt lat="59.826960073214" lon="16.978170193803">
        <ele>35</ele>
        <time>2019-11-12T10:02:22Z</time>
      </trkpt>
      <trkpt lat="59.827005503112" lon="16.978154016736">
        <ele>35.2</ele>
        <time>2019-11-12T10:02:25Z</time>
      </trkpt>
      <trkpt lat="59.827182696478" lon="16.978011356798">
        <ele>34.4</ele>
        <time>2019-11-12T10:02:34Z</time>
      </trkpt>
      <trkpt lat="59.827353100505" lon="16.977886969402">
        <ele>33.8</ele>
        <time>2019-11-12T10:02:42Z</time>
      </trkpt>
      <trkpt lat="59.827536999391" lon="16.977767694965">
        <ele>32.6</ele>
        <time>2019-11-12T10:02:50Z</time>
      </trkpt>
      <trkpt lat="59.827715114766" lon="16.977646241234">
        <ele>32.8</ele>
        <time>2019-11-12T10:02:58Z</time>
      </trkpt>
      <trkpt lat="59.827881327843" lon="16.977500815269">
        <ele>32.2</ele>
        <time>2019-11-12T10:03:06Z</time>
      </trkpt>
      <trkpt lat="59.827982329738" lon="16.977410626025">
        <ele>31.4</ele>
        <time>2019-11-12T10:03:11Z</time>
      </trkpt>
      <trkpt lat="59.827937151297" lon="16.977680774662">
        <ele>32.4</ele>
        <time>2019-11-12T10:03:19Z</time>
      </trkpt>
      <trkpt lat="59.827766831089" lon="16.97782930193">
        <ele>33.8</ele>
        <time>2019-11-12T10:03:27Z</time>
      </trkpt>
      <trkpt lat="59.827595253596" lon="16.977996017921">
        <ele>33.2</ele>
        <time>2019-11-12T10:03:35Z</time>
      </trkpt>
      <trkpt lat="59.827418814601" lon="16.978099450567">
        <ele>34.6</ele>
        <time>2019-11-12T10:03:43Z</time>
      </trkpt>
      <trkpt lat="59.827231730593" lon="16.978181509368">
        <ele>37</ele>
        <time>2019-11-12T10:03:51Z</time>
      </trkpt>
      <trkpt lat="59.827046322965" lon="16.978291479896">
        <ele>37.8</ele>
        <time>2019-11-12T10:03:59Z</time>
      </trkpt>
      <trkpt lat="59.826873991101" lon="16.97840430027">
        <ele>37.4</ele>
        <time>2019-11-12T10:04:07Z</time>
      </trkpt>
      <trkpt lat="59.826692103871" lon="16.978501027396">
        <ele>37</ele>
        <time>2019-11-12T10:04:15Z</time>
      </trkpt>
      <trkpt lat="59.826514072315" lon="16.978594988495">
        <ele>38.6</ele>
        <time>2019-11-12T10:04:23Z</time>
      </trkpt>
      <trkpt lat="59.826327910316" lon="16.978703701738">
        <ele>38.6</ele>
        <time>2019-11-12T10:04:31Z</time>
      </trkpt>
      <trkpt lat="59.826134204607" lon="16.978804619814">
        <ele>37.6</ele>
        <time>2019-11-12T10:04:39Z</time>
      </trkpt>
      <trkpt lat="59.82595625687" lon="16.978900089655">
        <ele>36</ele>
        <time>2019-11-12T10:04:47Z</time>
      </trkpt>
      <trkpt lat="59.825961118372" lon="16.979203346797">
        <ele>35.6</ele>
        <time>2019-11-12T10:04:54Z</time>
      </trkpt>
      <trkpt lat="59.825992969592" lon="16.979592518414">
        <ele>34.4</ele>
        <time>2019-11-12T10:05:02Z</time>
      </trkpt>
      <trkpt lat="59.826025994278" lon="16.979986300076">
        <ele>33.4</ele>
        <time>2019-11-12T10:05:10Z</time>
      </trkpt>
      <trkpt lat="59.826056169118" lon="16.980583091356">
        <ele>32.6</ele>
        <time>2019-11-12T10:05:22Z</time>
      </trkpt>
      <trkpt lat="59.826078045877" lon="16.980985171099">
        <ele>31.4</ele>
        <time>2019-11-12T10:05:30Z</time>
      </trkpt>
      <trkpt lat="59.826110651468" lon="16.981383814263">
        <ele>32</ele>
        <time>2019-11-12T10:05:38Z</time>
      </trkpt>
      <trkpt lat="59.826141748317" lon="16.981783379436">
        <ele>32.8</ele>
        <time>2019-11-12T10:05:46Z</time>
      </trkpt>
      <trkpt lat="59.826169240949" lon="16.98217699346">
        <ele>32.2</ele>
        <time>2019-11-12T10:05:54Z</time>
      </trkpt>
      <trkpt lat="59.826194721925" lon="16.982574966072">
        <ele>31.8</ele>
        <time>2019-11-12T10:06:02Z</time>
      </trkpt>
      <trkpt lat="59.826218861797" lon="16.982973357779">
        <ele>30.2</ele>
        <time>2019-11-12T10:06:10Z</time>
      </trkpt>
      <trkpt lat="59.826239816547" lon="16.983372671495">
        <ele>29.8</ele>
        <time>2019-11-12T10:06:18Z</time>
      </trkpt>
      <trkpt lat="59.826261944763" lon="16.983773242496">
        <ele>29</ele>
        <time>2019-11-12T10:06:26Z</time>
      </trkpt>
      <trkpt lat="59.826295388544" lon="16.984171550384">
        <ele>29.4</ele>
        <time>2019-11-12T10:06:34Z</time>
      </trkpt>
      <trkpt lat="59.826326150117" lon="16.984561560191">
        <ele>29.8</ele>
        <time>2019-11-12T10:06:42Z</time>
      </trkpt>
      <trkpt lat="59.826359761536" lon="16.984965483952">
        <ele>30.4</ele>
        <time>2019-11-12T10:06:50Z</time>
      </trkpt>
      <trkpt lat="59.826391026023" lon="16.985320960331">
        <ele>31</ele>
        <time>2019-11-12T10:06:57Z</time>
      </trkpt>
      <trkpt lat="59.82642564327" lon="16.985714322898">
        <ele>31.6</ele>
        <time>2019-11-12T10:07:05Z</time>
      </trkpt>
      <trkpt lat="59.826441233604" lon="16.985785820505">
        <ele>31.4</ele>
        <time>2019-11-12T10:07:07Z</time>
      </trkpt>
      <trkpt lat="59.826532512495" lon="16.985844158529">
        <ele>31.6</ele>
        <time>2019-11-12T10:07:11Z</time>
      </trkpt>
      <trkpt lat="59.826719261227" lon="16.985891264807">
        <ele>31.4</ele>
        <time>2019-11-12T10:07:18Z</time>
      </trkpt>
      <trkpt lat="59.826910703823" lon="16.985943232587">
        <ele>31.4</ele>
        <time>2019-11-12T10:07:25Z</time>
      </trkpt>
      <trkpt lat="59.827099967125" lon="16.985987153743">
        <ele>31.2</ele>
        <time>2019-11-12T10:07:32Z</time>
      </trkpt>
      <trkpt lat="59.827288643694" lon="16.986000900059">
        <ele>31.2</ele>
        <time>2019-11-12T10:07:39Z</time>
      </trkpt>
      <trkpt lat="59.827465669422" lon="16.985922110199">
        <ele>31.8</ele>
        <time>2019-11-12T10:07:46Z</time>
      </trkpt>
      <trkpt lat="59.827643114245" lon="16.985727650119">
        <ele>32.2</ele>
        <time>2019-11-12T10:07:54Z</time>
      </trkpt>
      <trkpt lat="59.827796419196" lon="16.985535201695">
        <ele>32.8</ele>
        <time>2019-11-12T10:08:01Z</time>
      </trkpt>
      <trkpt lat="59.827969253974" lon="16.985327079118">
        <ele>32.6</ele>
        <time>2019-11-12T10:08:09Z</time>
      </trkpt>
      <trkpt lat="59.828136975793" lon="16.985109987908">
        <ele>31.8</ele>
        <time>2019-11-12T10:08:17Z</time>
      </trkpt>
      <trkpt lat="59.828320204127" lon="16.985051063151">
        <ele>31.6</ele>
        <time>2019-11-12T10:08:25Z</time>
      </trkpt>
      <trkpt lat="59.828420200194" lon="16.985378124889">
        <ele>32</ele>
        <time>2019-11-12T10:08:33Z</time>
      </trkpt>
      <trkpt lat="59.828431683397" lon="16.985521958293">
        <ele>31.4</ele>
        <time>2019-11-12T10:08:36Z</time>
      </trkpt>
      <trkpt lat="59.828320455584" lon="16.985734774734">
        <ele>30.8</ele>
        <time>2019-11-12T10:08:42Z</time>
      </trkpt>
      <trkpt lat="59.828155583611" lon="16.985892019178">
        <ele>30.8</ele>
        <time>2019-11-12T10:08:49Z</time>
      </trkpt>
      <trkpt lat="59.82798719124" lon="16.986061501196">
        <ele>31.2</ele>
        <time>2019-11-12T10:08:56Z</time>
      </trkpt>
      <trkpt lat="59.827823408914" lon="16.986230899395">
        <ele>32</ele>
        <time>2019-11-12T10:09:03Z</time>
      </trkpt>
      <trkpt lat="59.827643700978" lon="16.986421419982">
        <ele>33.4</ele>
        <time>2019-11-12T10:09:11Z</time>
      </trkpt>
      <trkpt lat="59.827460388825" lon="16.986592829837">
        <ele>33.8</ele>
        <time>2019-11-12T10:09:19Z</time>
      </trkpt>
      <trkpt lat="59.827398446584" lon="16.986890890201">
        <ele>34.6</ele>
        <time>2019-11-12T10:09:27Z</time>
      </trkpt>
      <trkpt lat="59.827491401855" lon="16.987214012446">
        <ele>33.6</ele>
        <time>2019-11-12T10:09:35Z</time>
      </trkpt>
      <trkpt lat="59.827581339642" lon="16.987539481623">
        <ele>32.6</ele>
        <time>2019-11-12T10:09:43Z</time>
      </trkpt>
      <trkpt lat="59.827672367076" lon="16.987863442058">
        <ele>32.2</ele>
        <time>2019-11-12T10:09:51Z</time>
      </trkpt>
      <trkpt lat="59.827777811378" lon="16.988212715831">
        <ele>32.8</ele>
        <time>2019-11-12T10:09:59Z</time>
      </trkpt>
      <trkpt lat="59.827866994794" lon="16.988526534167">
        <ele>33</ele>
        <time>2019-11-12T10:10:06Z</time>
      </trkpt>
      <trkpt lat="59.827962632273" lon="16.988872874275">
        <ele>32.2</ele>
        <time>2019-11-12T10:10:14Z</time>
      </trkpt>
      <trkpt lat="59.828048965843" lon="16.989186524973">
        <ele>33.2</ele>
        <time>2019-11-12T10:10:22Z</time>
      </trkpt>
      <trkpt lat="59.828201432604" lon="16.989304458306">
        <ele>34.6</ele>
        <time>2019-11-12T10:10:31Z</time>
      </trkpt>
      <trkpt lat="59.828384074205" lon="16.989174287399">
        <ele>35.6</ele>
        <time>2019-11-12T10:10:40Z</time>
      </trkpt>
      <trkpt lat="59.828571828765" lon="16.989062137577">
        <ele>37</ele>
        <time>2019-11-12T10:10:49Z</time>
      </trkpt>
      <trkpt lat="59.828755140918" lon="16.988955603628">
        <ele>37.4</ele>
        <time>2019-11-12T10:10:57Z</time>
      </trkpt>
      <trkpt lat="59.828945912962" lon="16.98893867219">
        <ele>36.6</ele>
        <time>2019-11-12T10:11:05Z</time>
      </trkpt>
      <trkpt lat="59.829040460794" lon="16.988987119572">
        <ele>36.4</ele>
        <time>2019-11-12T10:11:09Z</time>
      </trkpt>
      <trkpt lat="59.829285799007" lon="16.989192308484">
        <ele>39.8</ele>
        <time>2019-11-12T10:11:21Z</time>
      </trkpt>
      <trkpt lat="59.829099301732" lon="16.989127684035">
        <ele>38</ele>
        <time>2019-11-12T10:11:30Z</time>
      </trkpt>
      <trkpt lat="59.828917079226" lon="16.988974295265">
        <ele>37.8</ele>
        <time>2019-11-12T10:11:38Z</time>
      </trkpt>
      <trkpt lat="59.828717757644" lon="16.989007990503">
        <ele>38.4</ele>
        <time>2019-11-12T10:11:46Z</time>
      </trkpt>
      <trkpt lat="59.828528745799" lon="16.989118296307">
        <ele>38.6</ele>
        <time>2019-11-12T10:11:54Z</time>
      </trkpt>
      <trkpt lat="59.828330932959" lon="16.989208485551">
        <ele>36.6</ele>
        <time>2019-11-12T10:12:02Z</time>
      </trkpt>
      <trkpt lat="59.828139238906" lon="16.989325664513">
        <ele>35.8</ele>
        <time>2019-11-12T10:12:10Z</time>
      </trkpt>
      <trkpt lat="59.828114512301" lon="16.989320216278">
        <ele>35.6</ele>
        <time>2019-11-12T10:12:11Z</time>
      </trkpt>
      <trkpt lat="59.828032034405" lon="16.989156433952">
        <ele>34.8</ele>
        <time>2019-11-12T10:12:16Z</time>
      </trkpt>
      <trkpt lat="59.827940084962" lon="16.988840352503">
        <ele>34</ele>
        <time>2019-11-12T10:12:23Z</time>
      </trkpt>
      <trkpt lat="59.827845704768" lon="16.988533239687">
        <ele>33.8</ele>
        <time>2019-11-12T10:12:30Z</time>
      </trkpt>
      <trkpt lat="59.827733890222" lon="16.988190839072">
        <ele>36.2</ele>
        <time>2019-11-12T10:12:38Z</time>
      </trkpt>
      <trkpt lat="59.827648311023" lon="16.987877942745">
        <ele>35.4</ele>
        <time>2019-11-12T10:12:45Z</time>
      </trkpt>
      <trkpt lat="59.827565078756" lon="16.987552222111">
        <ele>35</ele>
        <time>2019-11-12T10:12:52Z</time>
      </trkpt>
      <trkpt lat="59.827474973331" lon="16.987228680771">
        <ele>34.6</ele>
        <time>2019-11-12T10:12:59Z</time>
      </trkpt>
      <trkpt lat="59.827375563997" lon="16.986874377858">
        <ele>34.2</ele>
        <time>2019-11-12T10:13:07Z</time>
      </trkpt>
      <trkpt lat="59.827363494061" lon="16.986669105127">
        <ele>34.8</ele>
        <time>2019-11-12T10:13:11Z</time>
      </trkpt>
      <trkpt lat="59.827496095719" lon="16.986446146587">
        <ele>34.4</ele>
        <time>2019-11-12T10:13:17Z</time>
      </trkpt>
      <trkpt lat="59.82767370818" lon="16.986296278215">
        <ele>31.8</ele>
        <time>2019-11-12T10:13:24Z</time>
      </trkpt>
      <trkpt lat="59.827844363664" lon="16.986161497263">
        <ele>31.6</ele>
        <time>2019-11-12T10:13:31Z</time>
      </trkpt>
      <trkpt lat="59.828008313628" lon="16.98600500719">
        <ele>30.8</ele>
        <time>2019-11-12T10:13:38Z</time>
      </trkpt>
      <trkpt lat="59.82819087141" lon="16.985827143272">
        <ele>31.4</ele>
        <time>2019-11-12T10:13:46Z</time>
      </trkpt>
      <trkpt lat="59.828371333717" lon="16.985636287409">
        <ele>32.4</ele>
        <time>2019-11-12T10:13:54Z</time>
      </trkpt>
      <trkpt lat="59.828387678422" lon="16.985295311717">
        <ele>33</ele>
        <time>2019-11-12T10:14:02Z</time>
      </trkpt>
      <trkpt lat="59.828312157503" lon="16.984990378195">
        <ele>31.4</ele>
        <time>2019-11-12T10:14:09Z</time>
      </trkpt>
      <trkpt lat="59.828365717844" lon="16.984880742943">
        <ele>31</ele>
        <time>2019-11-12T10:14:13Z</time>
      </trkpt>
      <trkpt lat="59.828548862359" lon="16.98471000364">
        <ele>31</ele>
        <time>2019-11-12T10:14:21Z</time>
      </trkpt>
      <trkpt lat="59.828728570295" lon="16.98452979279">
        <ele>31</ele>
        <time>2019-11-12T10:14:29Z</time>
      </trkpt>
      <trkpt lat="59.828886820567" lon="16.984297111246">
        <ele>32.8</ele>
        <time>2019-11-12T10:14:37Z</time>
      </trkpt>
      <trkpt lat="59.829021936795" lon="16.984006091678">
        <ele>34</ele>
        <time>2019-11-12T10:14:45Z</time>
      </trkpt>
      <trkpt lat="59.829125034165" lon="16.983708534228">
        <ele>33.8</ele>
        <time>2019-11-12T10:14:52Z</time>
      </trkpt>
      <trkpt lat="59.829253444873" lon="16.9833890162">
        <ele>35.4</ele>
        <time>2019-11-12T10:15:00Z</time>
      </trkpt>
      <trkpt lat="59.829384202513" lon="16.983099673012">
        <ele>35.8</ele>
        <time>2019-11-12T10:15:08Z</time>
      </trkpt>
      <trkpt lat="59.829518732008" lon="16.982807228521">
        <ele>36.8</ele>
        <time>2019-11-12T10:15:16Z</time>
      </trkpt>
      <trkpt lat="59.829655692254" lon="16.982571278036">
        <ele>36.6</ele>
        <time>2019-11-12T10:15:23Z</time>
      </trkpt>
      <trkpt lat="59.82981109268" lon="16.982384948399">
        <ele>36</ele>
        <time>2019-11-12T10:15:30Z</time>
      </trkpt>
      <trkpt lat="59.829990297702" lon="16.982197361477">
        <ele>35.2</ele>
        <time>2019-11-12T10:15:38Z</time>
      </trkpt>
      <trkpt lat="59.830172687846" lon="16.982014216962">
        <ele>34.4</ele>
        <time>2019-11-12T10:15:46Z</time>
      </trkpt>
      <trkpt lat="59.830329680833" lon="16.981826881497">
        <ele>35.2</ele>
        <time>2019-11-12T10:15:53Z</time>
      </trkpt>
      <trkpt lat="59.830495558634" lon="16.981638204928">
        <ele>35.4</ele>
        <time>2019-11-12T10:16:00Z</time>
      </trkpt>
      <trkpt lat="59.830662609901" lon="16.981446007961">
        <ele>36.2</ele>
        <time>2019-11-12T10:16:07Z</time>
      </trkpt>
      <trkpt lat="59.830817255956" lon="16.981251883157">
        <ele>37.4</ele>
        <time>2019-11-12T10:16:14Z</time>
      </trkpt>
      <trkpt lat="59.830994365503" lon="16.981064128597">
        <ele>37.8</ele>
        <time>2019-11-12T10:16:22Z</time>
      </trkpt>
      <trkpt lat="59.831170553041" lon="16.980865896662">
        <ele>37.4</ele>
        <time>2019-11-12T10:16:30Z</time>
      </trkpt>
      <trkpt lat="59.831322181612" lon="16.980658779913">
        <ele>36.6</ele>
        <time>2019-11-12T10:16:37Z</time>
      </trkpt>
      <trkpt lat="59.831494764933" lon="16.980463062548">
        <ele>36</ele>
        <time>2019-11-12T10:16:45Z</time>
      </trkpt>
      <trkpt lat="59.831656367965" lon="16.980307326846">
        <ele>36.4</ele>
        <time>2019-11-12T10:16:52Z</time>
      </trkpt>
      <trkpt lat="59.831828783648" lon="16.980158129026">
        <ele>35.8</ele>
        <time>2019-11-12T10:17:00Z</time>
      </trkpt>
      <trkpt lat="59.832014778009" lon="16.980052265629">
        <ele>35.6</ele>
        <time>2019-11-12T10:17:08Z</time>
      </trkpt>
      <trkpt lat="59.832238910015" lon="16.979911533528">
        <ele>36</ele>
        <time>2019-11-12T10:17:18Z</time>
      </trkpt>
      <trkpt lat="59.832426077842" lon="16.979821847198">
        <ele>37.2</ele>
        <time>2019-11-12T10:17:26Z</time>
      </trkpt>
      <trkpt lat="59.832605366683" lon="16.979722270226">
        <ele>37.6</ele>
        <time>2019-11-12T10:17:34Z</time>
      </trkpt>
      <trkpt lat="59.83271039189" lon="16.979583968876">
        <ele>38</ele>
        <time>2019-11-12T10:17:40Z</time>
      </trkpt>
      <trkpt lat="59.832644426337" lon="16.979763425355">
        <ele>37.4</ele>
        <time>2019-11-12T10:17:46Z</time>
      </trkpt>
      <trkpt lat="59.832471088645" lon="16.979873312064">
        <ele>37.8</ele>
        <time>2019-11-12T10:17:53Z</time>
      </trkpt>
      <trkpt lat="59.832285764836" lon="16.979933410287">
        <ele>37.2</ele>
        <time>2019-11-12T10:18:00Z</time>
      </trkpt>
      <trkpt lat="59.832104883434" lon="16.980030724146">
        <ele>36</ele>
        <time>2019-11-12T10:18:07Z</time>
      </trkpt>
      <trkpt lat="59.831926600421" lon="16.980154608628">
        <ele>35</ele>
        <time>2019-11-12T10:18:14Z</time>
      </trkpt>
      <trkpt lat="59.831754520014" lon="16.980288216114">
        <ele>35.2</ele>
        <time>2019-11-12T10:18:21Z</time>
      </trkpt>
      <trkpt lat="59.831590737688" lon="16.98044194016">
        <ele>35.6</ele>
        <time>2019-11-12T10:18:28Z</time>
      </trkpt>
      <trkpt lat="59.831412789951" lon="16.98062718015">
        <ele>37</ele>
        <time>2019-11-12T10:18:36Z</time>
      </trkpt>
      <trkpt lat="59.831255713145" lon="16.980815689081">
        <ele>37.4</ele>
        <time>2019-11-12T10:18:43Z</time>
      </trkpt>
      <trkpt lat="59.831099893624" lon="16.981010400618">
        <ele>36</ele>
        <time>2019-11-12T10:18:50Z</time>
      </trkpt>
      <trkpt lat="59.830940553705" lon="16.981190024735">
        <ele>35.2</ele>
        <time>2019-11-12T10:18:57Z</time>
      </trkpt>
      <trkpt lat="59.8307817167" lon="16.981363781522">
        <ele>33.8</ele>
        <time>2019-11-12T10:19:04Z</time>
      </trkpt>
      <trkpt lat="59.830607121723" lon="16.981569808624">
        <ele>34.2</ele>
        <time>2019-11-12T10:19:12Z</time>
      </trkpt>
      <trkpt lat="59.830433364936" lon="16.981761921772">
        <ele>34.2</ele>
        <time>2019-11-12T10:19:20Z</time>
      </trkpt>
      <trkpt lat="59.830265307841" lon="16.98194816759">
        <ele>34</ele>
        <time>2019-11-12T10:19:28Z</time>
      </trkpt>
      <trkpt lat="59.830082917697" lon="16.98213676034">
        <ele>32.2</ele>
        <time>2019-11-12T10:19:36Z</time>
      </trkpt>
      <trkpt lat="59.829920141199" lon="16.982312277326">
        <ele>31.6</ele>
        <time>2019-11-12T10:19:43Z</time>
      </trkpt>
      <trkpt lat="59.829749988629" lon="16.982525009948">
        <ele>32.4</ele>
        <time>2019-11-12T10:19:51Z</time>
      </trkpt>
      <trkpt lat="59.829598443877" lon="16.982792476377">
        <ele>34.4</ele>
        <time>2019-11-12T10:19:59Z</time>
      </trkpt>
      <trkpt lat="59.829460393984" lon="16.983078215348">
        <ele>34.4</ele>
        <time>2019-11-12T10:20:07Z</time>
      </trkpt>
      <trkpt lat="59.829323182281" lon="16.983367139441">
        <ele>34.6</ele>
        <time>2019-11-12T10:20:15Z</time>
      </trkpt>
      <trkpt lat="59.829197705238" lon="16.983665032167">
        <ele>34.8</ele>
        <time>2019-11-12T10:20:23Z</time>
      </trkpt>
      <trkpt lat="59.829083208484" lon="16.983942473057">
        <ele>33</ele>
        <time>2019-11-12T10:20:30Z</time>
      </trkpt>
      <trkpt lat="59.828963766409" lon="16.984251262253">
        <ele>32.8</ele>
        <time>2019-11-12T10:20:38Z</time>
      </trkpt>
      <trkpt lat="59.828818256625" lon="16.984527613496">
        <ele>32.6</ele>
        <time>2019-11-12T10:20:46Z</time>
      </trkpt>
      <trkpt lat="59.82866025781" lon="16.984697598428">
        <ele>32</ele>
        <time>2019-11-12T10:20:53Z</time>
      </trkpt>
      <trkpt lat="59.828495721113" lon="16.984842605298">
        <ele>31.2</ele>
        <time>2019-11-12T10:21:00Z</time>
      </trkpt>
      <trkpt lat="59.828331352054" lon="16.985041591604">
        <ele>31.8</ele>
        <time>2019-11-12T10:21:09Z</time>
      </trkpt>
      <trkpt lat="59.828396982331" lon="16.985400588381">
        <ele>34</ele>
        <time>2019-11-12T10:21:18Z</time>
      </trkpt>
      <trkpt lat="59.828365047292" lon="16.985736115838">
        <ele>36</ele>
        <time>2019-11-12T10:21:26Z</time>
      </trkpt>
      <trkpt lat="59.828199672405" lon="16.985880535975">
        <ele>35.4</ele>
        <time>2019-11-12T10:21:33Z</time>
      </trkpt>
      <trkpt lat="59.82801485151" lon="16.986043899206">
        <ele>35.2</ele>
        <time>2019-11-12T10:21:41Z</time>
      </trkpt>
      <trkpt lat="59.827830868805" lon="16.986224445332">
        <ele>35</ele>
        <time>2019-11-12T10:21:49Z</time>
      </trkpt>
      <trkpt lat="59.827653423982" lon="16.986392167151">
        <ele>34.6</ele>
        <time>2019-11-12T10:21:57Z</time>
      </trkpt>
      <trkpt lat="59.827475308607" lon="16.986554356916">
        <ele>34.6</ele>
        <time>2019-11-12T10:22:05Z</time>
      </trkpt>
      <trkpt lat="59.827405403561" lon="16.98687421022">
        <ele>35.2</ele>
        <time>2019-11-12T10:22:14Z</time>
      </trkpt>
      <trkpt lat="59.827500370488" lon="16.987189118203">
        <ele>35.2</ele>
        <time>2019-11-12T10:22:22Z</time>
      </trkpt>
      <trkpt lat="59.827591817017" lon="16.987522634004">
        <ele>35.2</ele>
        <time>2019-11-12T10:22:30Z</time>
      </trkpt>
      <trkpt lat="59.827682341537" lon="16.987849611923">
        <ele>35</ele>
        <time>2019-11-12T10:22:38Z</time>
      </trkpt>
      <trkpt lat="59.827775799722" lon="16.988193102185">
        <ele>33.8</ele>
        <time>2019-11-12T10:22:46Z</time>
      </trkpt>
      <trkpt lat="59.827871353382" lon="16.988548578564">
        <ele>33.2</ele>
        <time>2019-11-12T10:22:54Z</time>
      </trkpt>
      <trkpt lat="59.827968248146" lon="16.988884944211">
        <ele>33.4</ele>
        <time>2019-11-12T10:23:02Z</time>
      </trkpt>
      <trkpt lat="59.828059024123" lon="16.989202199126">
        <ele>34</ele>
        <time>2019-11-12T10:23:10Z</time>
      </trkpt>
      <trkpt lat="59.828131192282" lon="16.98934435615">
        <ele>33.4</ele>
        <time>2019-11-12T10:23:15Z</time>
      </trkpt>
      <trkpt lat="59.828255747316" lon="16.989249724499">
        <ele>33.2</ele>
        <time>2019-11-12T10:23:21Z</time>
      </trkpt>
      <trkpt lat="59.828424474963" lon="16.989119050678">
        <ele>34.8</ele>
        <time>2019-11-12T10:23:29Z</time>
      </trkpt>
      <trkpt lat="59.828601249234" lon="16.989017545869">
        <ele>36.2</ele>
        <time>2019-11-12T10:23:37Z</time>
      </trkpt>
      <trkpt lat="59.828790847812" lon="16.988919729096">
        <ele>37.2</ele>
        <time>2019-11-12T10:23:45Z</time>
      </trkpt>
      <trkpt lat="59.828975501069" lon="16.988923920046">
        <ele>37.4</ele>
        <time>2019-11-12T10:23:52Z</time>
      </trkpt>
      <trkpt lat="59.82905169254" lon="16.988977564206">
        <ele>37.8</ele>
        <time>2019-11-12T10:23:55Z</time>
      </trkpt>
      <trkpt lat="59.829126710545" lon="16.98911469209">
        <ele>40</ele>
        <time>2019-11-12T10:23:59Z</time>
      </trkpt>
      <trkpt lat="59.829303065721" lon="16.989222064229">
        <ele>41</ele>
        <time>2019-11-12T10:24:07Z</time>
      </trkpt>
      <trkpt lat="59.829312956363" lon="16.989202953497">
        <ele>41</ele>
        <time>2019-11-12T10:24:08Z</time>
      </trkpt>
      <trkpt lat="59.829261910592" lon="16.989170096449">
        <ele>39.8</ele>
        <time>2019-11-12T10:24:12Z</time>
      </trkpt>
      <trkpt lat="59.829087567072" lon="16.989085523078">
        <ele>38.8</ele>
        <time>2019-11-12T10:24:19Z</time>
      </trkpt>
      <trkpt lat="59.828917665959" lon="16.988983682993">
        <ele>37.8</ele>
        <time>2019-11-12T10:24:26Z</time>
      </trkpt>
      <trkpt lat="59.82873401853" lon="16.98900824196">
        <ele>38.4</ele>
        <time>2019-11-12T10:24:33Z</time>
      </trkpt>
      <trkpt lat="59.828544839047" lon="16.989129611872">
        <ele>39.8</ele>
        <time>2019-11-12T10:24:41Z</time>
      </trkpt>
      <trkpt lat="59.828347110026" lon="16.989230194672">
        <ele>36.6</ele>
        <time>2019-11-12T10:24:49Z</time>
      </trkpt>
      <trkpt lat="59.828178214741" lon="16.989359024475">
        <ele>35.6</ele>
        <time>2019-11-12T10:24:57Z</time>
      </trkpt>
      <trkpt lat="59.828131862834" lon="16.989369585669">
        <ele>35.2</ele>
        <time>2019-11-12T10:24:59Z</time>
      </trkpt>
      <trkpt lat="59.8280073078" lon="16.989068675459">
        <ele>35.2</ele>
        <time>2019-11-12T10:25:07Z</time>
      </trkpt>
      <trkpt lat="59.827918878755" lon="16.988749660345">
        <ele>35.2</ele>
        <time>2019-11-12T10:25:14Z</time>
      </trkpt>
      <trkpt lat="59.827821983991" lon="16.988447073755">
        <ele>35.8</ele>
        <time>2019-11-12T10:25:21Z</time>
      </trkpt>
      <trkpt lat="59.827720060087" lon="16.988108361176">
        <ele>36.6</ele>
        <time>2019-11-12T10:25:29Z</time>
      </trkpt>
      <trkpt lat="59.827623835875" lon="16.987759171222">
        <ele>37.4</ele>
        <time>2019-11-12T10:25:37Z</time>
      </trkpt>
      <trkpt lat="59.827540100694" lon="16.987432863855">
        <ele>36.6</ele>
        <time>2019-11-12T10:25:44Z</time>
      </trkpt>
      <trkpt lat="59.827456784608" lon="16.98710471247">
        <ele>34.4</ele>
        <time>2019-11-12T10:25:51Z</time>
      </trkpt>
      <trkpt lat="59.82736944521" lon="16.986777315456">
        <ele>35</ele>
        <time>2019-11-12T10:25:58Z</time>
      </trkpt>
      <trkpt lat="59.827372127418" lon="16.986720737631">
        <ele>34.8</ele>
        <time>2019-11-12T10:25:59Z</time>
      </trkpt>
      <trkpt lat="59.827471369114" lon="16.986463748577">
        <ele>34.2</ele>
        <time>2019-11-12T10:26:05Z</time>
      </trkpt>
      <trkpt lat="59.827645880272" lon="16.986288566867">
        <ele>32.6</ele>
        <time>2019-11-12T10:26:12Z</time>
      </trkpt>
      <trkpt lat="59.827814105005" lon="16.986132914984">
        <ele>31.8</ele>
        <time>2019-11-12T10:26:19Z</time>
      </trkpt>
      <trkpt lat="59.82799976409" lon="16.985969467934">
        <ele>32</ele>
        <time>2019-11-12T10:26:27Z</time>
      </trkpt>
      <trkpt lat="59.828184668804" lon="16.985814905698">
        <ele>32.4</ele>
        <time>2019-11-12T10:26:35Z</time>
      </trkpt>
      <trkpt lat="59.828366807491" lon="16.985640143083">
        <ele>34.4</ele>
        <time>2019-11-12T10:26:43Z</time>
      </trkpt>
      <trkpt lat="59.828386840232" lon="16.985292964785">
        <ele>34.6</ele>
        <time>2019-11-12T10:26:51Z</time>
      </trkpt>
      <trkpt lat="59.828273265487" lon="16.985000687932">
        <ele>33.8</ele>
        <time>2019-11-12T10:26:59Z</time>
      </trkpt>
      <trkpt lat="59.828100514528" lon="16.985160446946">
        <ele>34.6</ele>
        <time>2019-11-12T10:27:07Z</time>
      </trkpt>
      <trkpt lat="59.828079727416" lon="16.985185005913">
        <ele>34.2</ele>
        <time>2019-11-12T10:27:08Z</time>
      </trkpt>
      <trkpt lat="59.827924578447" lon="16.985381477649">
        <ele>33.6</ele>
        <time>2019-11-12T10:27:15Z</time>
      </trkpt>
      <trkpt lat="59.827758533008" lon="16.985622708731">
        <ele>34.8</ele>
        <time>2019-11-12T10:27:23Z</time>
      </trkpt>
      <trkpt lat="59.827597851985" lon="16.985801075563">
        <ele>33.8</ele>
        <time>2019-11-12T10:27:30Z</time>
      </trkpt>
      <trkpt lat="59.827431974184" lon="16.985970389943">
        <ele>31.8</ele>
        <time>2019-11-12T10:27:37Z</time>
      </trkpt>
      <trkpt lat="59.82723533481" lon="16.986028308872">
        <ele>32.4</ele>
        <time>2019-11-12T10:27:45Z</time>
      </trkpt>
      <trkpt lat="59.82705260939" lon="16.986006013018">
        <ele>32.6</ele>
        <time>2019-11-12T10:27:52Z</time>
      </trkpt>
      <trkpt lat="59.826848426306" lon="16.985955889256">
        <ele>31.6</ele>
        <time>2019-11-12T10:28:00Z</time>
      </trkpt>
      <trkpt lat="59.826669053646" lon="16.985930240642">
        <ele>34.2</ele>
        <time>2019-11-12T10:28:07Z</time>
      </trkpt>
      <trkpt lat="59.826474425928" lon="16.98586335308">
        <ele>35</ele>
        <time>2019-11-12T10:28:15Z</time>
      </trkpt>
      <trkpt lat="59.826438467577" lon="16.985820856847">
        <ele>35.4</ele>
        <time>2019-11-12T10:28:17Z</time>
      </trkpt>
      <trkpt lat="59.82638373377" lon="16.985444174261">
        <ele>38.4</ele>
        <time>2019-11-12T10:28:26Z</time>
      </trkpt>
      <trkpt lat="59.826370909463" lon="16.985082662914">
        <ele>39</ele>
        <time>2019-11-12T10:28:33Z</time>
      </trkpt>
      <trkpt lat="59.826350709084" lon="16.984725342517">
        <ele>37</ele>
        <time>2019-11-12T10:28:40Z</time>
      </trkpt>
      <trkpt lat="59.826320198968" lon="16.984337931099">
        <ele>35.2</ele>
        <time>2019-11-12T10:28:48Z</time>
      </trkpt>
      <trkpt lat="59.826302932254" lon="16.983949932948">
        <ele>33.4</ele>
        <time>2019-11-12T10:28:56Z</time>
      </trkpt>
      <trkpt lat="59.826267057722" lon="16.98355330144">
        <ele>33.6</ele>
        <time>2019-11-12T10:29:04Z</time>
      </trkpt>
      <trkpt lat="59.826237301977" lon="16.983156586113">
        <ele>35.8</ele>
        <time>2019-11-12T10:29:12Z</time>
      </trkpt>
      <trkpt lat="59.82620687568" lon="16.982718799476">
        <ele>36.8</ele>
        <time>2019-11-12T10:29:21Z</time>
      </trkpt>
      <trkpt lat="59.826184747464" lon="16.982347816582">
        <ele>37.8</ele>
        <time>2019-11-12T10:29:29Z</time>
      </trkpt>
      <trkpt lat="59.82615239333" lon="16.981984796493">
        <ele>38.2</ele>
        <time>2019-11-12T10:29:37Z</time>
      </trkpt>
      <trkpt lat="59.826123475775" lon="16.981608030088">
        <ele>38.4</ele>
        <time>2019-11-12T10:29:45Z</time>
      </trkpt>
      <trkpt lat="59.826080811904" lon="16.981252218433">
        <ele>39</ele>
        <time>2019-11-12T10:29:53Z</time>
      </trkpt>
      <trkpt lat="59.826063964285" lon="16.981027751151">
        <ele>40.2</ele>
        <time>2019-11-12T10:29:58Z</time>
      </trkpt>
      <trkpt lat="59.826130432752" lon="16.981679276238">
        <ele>39.6</ele>
        <time>2019-11-12T10:31:11Z</time>
      </trkpt>
      <trkpt lat="59.826164044171" lon="16.982073141719">
        <ele>39.2</ele>
        <time>2019-11-12T10:31:20Z</time>
      </trkpt>
      <trkpt lat="59.826195476296" lon="16.982426522623">
        <ele>38</ele>
        <time>2019-11-12T10:31:27Z</time>
      </trkpt>
      <trkpt lat="59.826227914249" lon="16.982829775832">
        <ele>36.8</ele>
        <time>2019-11-12T10:31:35Z</time>
      </trkpt>
      <trkpt lat="59.826255658338" lon="16.983231855575">
        <ele>36.6</ele>
        <time>2019-11-12T10:31:43Z</time>
      </trkpt>
      <trkpt lat="59.826286587549" lon="16.983613315844">
        <ele>36.6</ele>
        <time>2019-11-12T10:31:51Z</time>
      </trkpt>
      <trkpt lat="59.826318271131" lon="16.983979856331">
        <ele>36.6</ele>
        <time>2019-11-12T10:31:59Z</time>
      </trkpt>
      <trkpt lat="59.82634852979" lon="16.984349414302">
        <ele>36</ele>
        <time>2019-11-12T10:32:07Z</time>
      </trkpt>
      <trkpt lat="59.826378956087" lon="16.984718972273">
        <ele>36.2</ele>
        <time>2019-11-12T10:32:15Z</time>
      </trkpt>
      <trkpt lat="59.826409885298" lon="16.98508718914">
        <ele>36.6</ele>
        <time>2019-11-12T10:32:23Z</time>
      </trkpt>
      <trkpt lat="59.826436707378" lon="16.98545515455">
        <ele>36.6</ele>
        <time>2019-11-12T10:32:31Z</time>
      </trkpt>
      <trkpt lat="59.826439473405" lon="16.985777270967">
        <ele>36.4</ele>
        <time>2019-11-12T10:32:38Z</time>
      </trkpt>
      <trkpt lat="59.826348362152" lon="16.985869890962">
        <ele>35</ele>
        <time>2019-11-12T10:32:42Z</time>
      </trkpt>
      <trkpt lat="59.826173180442" lon="16.985957314179">
        <ele>34.2</ele>
        <time>2019-11-12T10:32:49Z</time>
      </trkpt>
      <trkpt lat="59.825988191909" lon="16.986074241684">
        <ele>33.6</ele>
        <time>2019-11-12T10:32:57Z</time>
      </trkpt>
      <trkpt lat="59.825799431521" lon="16.986183709298">
        <ele>32.4</ele>
        <time>2019-11-12T10:33:05Z</time>
      </trkpt>
      <trkpt lat="59.825616706101" lon="16.986289321238">
        <ele>32</ele>
        <time>2019-11-12T10:33:13Z</time>
      </trkpt>
      <trkpt lat="59.825439261278" lon="16.986400381413">
        <ele>32.6</ele>
        <time>2019-11-12T10:33:21Z</time>
      </trkpt>
      <trkpt lat="59.825247734863" lon="16.986497192358">
        <ele>33.2</ele>
        <time>2019-11-12T10:33:29Z</time>
      </trkpt>
      <trkpt lat="59.825061740502" lon="16.986591153457">
        <ele>34.4</ele>
        <time>2019-11-12T10:33:37Z</time>
      </trkpt>
      <trkpt lat="59.824873063933" lon="16.986700034338">
        <ele>35.4</ele>
        <time>2019-11-12T10:33:45Z</time>
      </trkpt>
      <trkpt lat="59.824685141735" lon="16.986788379564">
        <ele>35.6</ele>
        <time>2019-11-12T10:33:53Z</time>
      </trkpt>
      <trkpt lat="59.824489843465" lon="16.986869600175">
        <ele>35.6</ele>
        <time>2019-11-12T10:34:01Z</time>
      </trkpt>
      <trkpt lat="59.824296556851" lon="16.986954005908">
        <ele>35.6</ele>
        <time>2019-11-12T10:34:09Z</time>
      </trkpt>
      <trkpt lat="59.824107964101" lon="16.987038914555">
        <ele>36</ele>
        <time>2019-11-12T10:34:17Z</time>
      </trkpt>
      <trkpt lat="59.823918952256" lon="16.987140419364">
        <ele>36.2</ele>
        <time>2019-11-12T10:34:25Z</time>
      </trkpt>
      <trkpt lat="59.823723486348" lon="16.987231949712">
        <ele>34.8</ele>
        <time>2019-11-12T10:34:33Z</time>
      </trkpt>
      <trkpt lat="59.82353053501" lon="16.987346278828">
        <ele>33.6</ele>
        <time>2019-11-12T10:34:41Z</time>
      </trkpt>
      <trkpt lat="59.823347306676" lon="16.9874793834">
        <ele>34.4</ele>
        <time>2019-11-12T10:34:49Z</time>
      </trkpt>
      <trkpt lat="59.823159971211" lon="16.987607291194">
        <ele>34.8</ele>
        <time>2019-11-12T10:34:57Z</time>
      </trkpt>
      <trkpt lat="59.822967522787" lon="16.987724721613">
        <ele>34.8</ele>
        <time>2019-11-12T10:35:05Z</time>
      </trkpt>
      <trkpt lat="59.822780690236" lon="16.987851791217">
        <ele>36</ele>
        <time>2019-11-12T10:35:13Z</time>
      </trkpt>
      <trkpt lat="59.822593270952" lon="16.987962516116">
        <ele>36.2</ele>
        <time>2019-11-12T10:35:21Z</time>
      </trkpt>
      <trkpt lat="59.822404091469" lon="16.988081539096">
        <ele>36</ele>
        <time>2019-11-12T10:35:29Z</time>
      </trkpt>
      <trkpt lat="59.822209296113" lon="16.988186564303">
        <ele>35.4</ele>
        <time>2019-11-12T10:35:37Z</time>
      </trkpt>
      <trkpt lat="59.822017182965" lon="16.988305754921">
        <ele>36.2</ele>
        <time>2019-11-12T10:35:45Z</time>
      </trkpt>
      <trkpt lat="59.82183236207" lon="16.988436680199">
        <ele>36.6</ele>
        <time>2019-11-12T10:35:53Z</time>
      </trkpt>
      <trkpt lat="59.821659443473" lon="16.98853717918">
        <ele>35.8</ele>
        <time>2019-11-12T10:36:00Z</time>
      </trkpt>
      <trkpt lat="59.82146691123" lon="16.988647484984">
        <ele>36.6</ele>
        <time>2019-11-12T10:36:08Z</time>
      </trkpt>
      <trkpt lat="59.82128837676" lon="16.988728621776">
        <ele>36.6</ele>
        <time>2019-11-12T10:36:15Z</time>
      </trkpt>
      <trkpt lat="59.821108082091" lon="16.988813278966">
        <ele>36</ele>
        <time>2019-11-12T10:36:22Z</time>
      </trkpt>
      <trkpt lat="59.820931391639" lon="16.988902797658">
        <ele>35.6</ele>
        <time>2019-11-12T10:36:29Z</time>
      </trkpt>
      <trkpt lat="59.820848662286" lon="16.988942276407">
        <ele>34.8</ele>
        <time>2019-11-12T10:36:32Z</time>
      </trkpt>
    </trkseg>
  </trk>
</gpx>